createdAt,value
2019-05-20T00:00:40.539Z,37.90
2019-05-20T00:01:40.525Z,37.60
2019-05-20T00:02:40.519Z,37.60
2019-05-20T00:03:40.520Z,39.10
2019-05-20T00:04:40.508Z,38.20
2019-05-20T00:05:40.548Z,38.10
2019-05-20T00:06:40.496Z,39.00
2019-05-20T00:07:40.490Z,37.60
2019-05-20T00:08:40.491Z,37.80
2019-05-20T00:09:40.483Z,39.70
2019-05-20T00:10:40.483Z,39.20
2019-05-20T00:11:40.472Z,38.00
2019-05-20T00:12:40.468Z,38.40
2019-05-20T00:13:40.459Z,39.10
2019-05-20T00:14:40.450Z,38.00
2019-05-20T00:15:40.446Z,38.30
2019-05-20T00:16:40.450Z,37.70
2019-05-20T00:17:40.437Z,38.90
2019-05-20T00:18:40.431Z,39.00
2019-05-20T00:19:40.438Z,37.70
2019-05-20T00:20:40.419Z,40.00
2019-05-20T00:21:40.410Z,40.50
2019-05-20T00:22:40.404Z,39.70
2019-05-20T00:23:40.402Z,39.80
2019-05-20T00:24:40.399Z,42.20
2019-05-20T00:25:40.388Z,41.70
2019-05-20T00:26:40.382Z,41.40
2019-05-20T00:27:40.377Z,40.90
2019-05-20T00:28:40.373Z,41.70
2019-05-20T00:29:40.369Z,43.20
2019-05-20T00:30:40.363Z,42.90
2019-05-20T00:31:40.355Z,42.80
2019-05-20T00:32:42.114Z,42.30
2019-05-20T00:33:40.372Z,42.40
2019-05-20T00:34:40.336Z,40.80
2019-05-20T00:35:40.341Z,43.50
2019-05-20T00:36:40.324Z,43.30
2019-05-20T00:37:40.331Z,44.50
2019-05-20T00:38:40.320Z,45.20
2019-05-20T00:39:40.307Z,46.50
2019-05-20T00:40:40.302Z,45.30
2019-05-20T00:41:40.297Z,47.20
2019-05-20T00:42:40.291Z,47.80
2019-05-20T00:43:40.294Z,47.50
2019-05-20T00:44:40.277Z,47.80
2019-05-20T00:45:40.272Z,48.50
2019-05-20T00:46:40.267Z,50.70
2019-05-20T00:47:40.263Z,50.90
2019-05-20T00:48:40.257Z,48.30
2019-05-20T00:49:40.250Z,48.00
2019-05-20T00:50:40.249Z,47.70
2019-05-20T00:51:40.241Z,50.00
2019-05-20T00:52:40.234Z,52.20
2019-05-20T00:53:40.224Z,55.40
2019-05-20T00:54:40.218Z,55.60
2019-05-20T00:55:40.217Z,53.10
2019-05-20T00:56:40.211Z,52.80
2019-05-20T00:57:40.201Z,55.20
2019-05-20T00:58:40.195Z,53.80
2019-05-20T00:59:40.190Z,50.00
2019-05-20T01:00:40.185Z,51.60
2019-05-20T01:01:40.182Z,52.00
2019-05-20T01:02:40.169Z,52.60
2019-05-20T01:03:40.171Z,54.00
2019-05-20T01:04:40.163Z,52.90
2019-05-20T01:05:40.158Z,53.70
2019-05-20T01:06:40.147Z,53.50
2019-05-20T01:07:40.141Z,56.50
2019-05-20T01:08:40.137Z,56.20
2019-05-20T01:09:40.133Z,56.60
2019-05-20T01:10:40.131Z,57.60
2019-05-20T01:11:40.118Z,58.10
2019-05-20T01:12:40.111Z,58.00
2019-05-20T01:13:40.110Z,58.70
2019-05-20T01:14:40.102Z,60.70
2019-05-20T01:15:40.096Z,58.50
2019-05-20T01:16:40.097Z,59.90
2019-05-20T01:17:40.081Z,60.40
2019-05-20T01:18:40.079Z,60.40
2019-05-20T01:19:40.078Z,63.60
2019-05-20T01:20:40.063Z,62.40
2019-05-20T01:21:40.062Z,60.30
2019-05-20T01:22:40.054Z,67.30
2019-05-20T01:23:40.042Z,65.20
2019-05-20T01:24:40.042Z,63.90
2019-05-20T01:25:40.031Z,64.10
2019-05-20T01:26:40.026Z,62.90
2019-05-20T01:27:40.022Z,62.10
2019-05-20T01:28:40.018Z,66.40
2019-05-20T01:29:40.006Z,64.10
2019-05-20T01:30:40.000Z,65.20
2019-05-20T01:31:39.994Z,68.70
2019-05-20T01:32:39.988Z,70.20
2019-05-20T01:33:39.978Z,72.10
2019-05-20T01:34:39.980Z,70.80
2019-05-20T01:35:39.975Z,70.30
2019-05-20T01:36:39.969Z,70.90
2019-05-20T01:37:39.956Z,65.80
2019-05-20T01:38:39.951Z,66.00
2019-05-20T01:39:39.943Z,68.40
2019-05-20T01:40:39.939Z,69.60
2019-05-20T01:41:39.940Z,68.40
2019-05-20T01:42:39.936Z,67.40
2019-05-20T01:43:39.924Z,67.00
2019-05-20T01:44:39.918Z,67.70
2019-05-20T01:45:39.912Z,65.70
2019-05-20T01:46:39.909Z,66.80
2019-05-20T01:47:39.945Z,66.00
2019-05-20T01:48:39.895Z,63.10
2019-05-20T01:49:39.885Z,66.90
2019-05-20T01:50:39.880Z,68.70
2019-05-20T01:51:39.872Z,69.00
2019-05-20T01:52:39.871Z,68.40
2019-05-20T01:53:39.910Z,69.70
2019-05-20T01:54:39.856Z,69.30
2019-05-20T01:55:39.852Z,69.70
2019-05-20T01:56:39.847Z,71.10
2019-05-20T01:57:39.834Z,70.70
2019-05-20T01:58:39.902Z,72.20
2019-05-20T01:59:39.826Z,69.40
2019-05-20T02:00:39.820Z,69.00
2019-05-20T02:01:39.811Z,64.30
2019-05-20T02:02:39.806Z,68.00
2019-05-20T02:03:39.807Z,63.00
2019-05-20T02:04:39.793Z,60.00
2019-05-20T02:05:39.791Z,60.20
2019-05-20T02:06:39.787Z,59.00
2019-05-20T02:07:39.776Z,57.80
2019-05-20T02:08:39.770Z,58.70
2019-05-20T02:09:39.761Z,57.20
2019-05-20T02:10:39.756Z,54.60
2019-05-20T02:11:39.750Z,54.20
2019-05-20T02:12:39.745Z,53.70
2019-05-20T02:13:39.744Z,54.10
2019-05-20T02:14:39.734Z,53.70
2019-05-20T02:15:39.731Z,54.00
2019-05-20T02:16:39.720Z,52.30
2019-05-20T02:17:39.717Z,53.40
2019-05-20T02:18:39.711Z,54.20
2019-05-20T02:19:39.706Z,54.30
2019-05-20T02:20:39.706Z,54.20
2019-05-20T02:21:39.715Z,54.30
2019-05-20T02:22:39.689Z,54.80
2019-05-20T02:23:39.681Z,54.30
2019-05-20T02:24:39.675Z,52.80
2019-05-20T02:25:39.677Z,53.60
2019-05-20T02:26:39.667Z,53.50
2019-05-20T02:27:39.662Z,56.90
2019-05-20T02:28:39.655Z,55.20
2019-05-20T02:29:39.647Z,55.60
2019-05-20T02:30:39.640Z,53.50
2019-05-20T02:31:39.644Z,58.60
2019-05-20T02:32:39.637Z,55.00
2019-05-20T02:33:50.842Z,57.20
2019-05-20T02:34:39.619Z,57.10
2019-05-20T02:35:39.612Z,58.80
2019-05-20T02:36:39.609Z,57.40
2019-05-20T02:37:39.608Z,55.70
2019-05-20T02:38:39.600Z,55.60
2019-05-20T02:39:39.595Z,55.60
2019-05-20T02:40:39.589Z,54.90
2019-05-20T02:41:39.585Z,56.10
2019-05-20T02:42:39.579Z,55.70
2019-05-20T02:43:39.571Z,54.70
2019-05-20T02:44:39.567Z,55.80
2019-05-20T02:45:39.561Z,58.00
2019-05-20T02:46:39.557Z,58.00
2019-05-20T02:47:39.556Z,57.10
2019-05-20T02:48:39.887Z,57.30
2019-05-20T02:49:39.549Z,56.70
2019-05-20T02:50:39.537Z,56.90
2019-05-20T02:51:39.543Z,57.40
2019-05-20T02:52:39.528Z,58.30
2019-05-20T02:53:39.526Z,58.80
2019-05-20T02:54:39.525Z,59.80
2019-05-20T02:55:39.510Z,58.90
2019-05-20T02:56:39.503Z,59.30
2019-05-20T02:57:39.503Z,59.80
2019-05-20T02:58:39.501Z,57.40
2019-05-20T02:59:39.495Z,56.50
2019-05-20T03:00:39.487Z,59.50
2019-05-20T03:01:39.478Z,59.60
2019-05-20T03:02:39.507Z,58.40
2019-05-20T03:03:39.472Z,57.60
2019-05-20T03:04:39.482Z,58.40
2019-05-20T03:05:39.463Z,58.30
2019-05-20T03:06:39.448Z,59.30
2019-05-20T03:07:39.447Z,60.90
2019-05-20T03:08:39.442Z,58.00
2019-05-20T03:09:39.442Z,61.00
2019-05-20T03:10:39.432Z,60.90
2019-05-20T03:11:39.439Z,59.10
2019-05-20T03:12:39.425Z,61.60
2019-05-20T03:13:39.419Z,61.30
2019-05-20T03:14:40.001Z,59.60
2019-05-20T03:15:39.403Z,61.30
2019-05-20T03:16:39.403Z,60.50
2019-05-20T03:17:39.400Z,59.90
2019-05-20T03:18:39.393Z,60.30
2019-05-20T03:19:39.382Z,60.40
2019-05-20T03:20:39.379Z,61.40
2019-05-20T03:21:39.377Z,61.40
2019-05-20T03:22:39.375Z,60.00
2019-05-20T03:23:39.368Z,61.70
2019-05-20T03:24:39.362Z,62.90
2019-05-20T03:25:39.356Z,59.60
2019-05-20T03:26:39.348Z,60.80
2019-05-20T03:27:39.345Z,62.90
2019-05-20T03:28:39.341Z,60.70
2019-05-20T03:29:39.336Z,60.80
2019-05-20T03:30:39.335Z,61.80
2019-05-20T03:31:39.326Z,62.50
2019-05-20T03:32:39.361Z,64.50
2019-05-20T03:33:39.317Z,61.40
2019-05-20T03:34:46.498Z,61.10
2019-05-20T03:35:39.334Z,63.50
2019-05-20T03:36:39.307Z,62.10
2019-05-20T03:37:39.290Z,62.30
2019-05-20T03:38:39.292Z,63.20
2019-05-20T03:39:39.283Z,62.10
2019-05-20T03:40:39.269Z,64.10
2019-05-20T03:41:39.339Z,61.80
2019-05-20T03:42:39.267Z,63.30
2019-05-20T03:43:39.267Z,61.50
2019-05-20T03:44:39.261Z,65.80
2019-05-20T03:45:39.250Z,61.10
2019-05-20T03:46:39.251Z,60.60
2019-05-20T03:47:39.248Z,61.40
2019-05-20T03:48:39.238Z,60.50
2019-05-20T03:49:39.230Z,61.10
2019-05-20T03:50:39.229Z,60.30
2019-05-20T03:51:39.634Z,59.60
2019-05-20T03:52:39.211Z,57.90
2019-05-20T03:53:39.214Z,60.40
2019-05-20T03:54:39.214Z,58.60
2019-05-20T03:55:39.204Z,57.10
2019-05-20T03:56:39.198Z,60.00
2019-05-20T03:57:39.191Z,59.10
2019-05-20T03:58:39.191Z,57.90
2019-05-20T03:59:39.182Z,57.30
2019-05-20T04:00:39.174Z,56.90
2019-05-20T04:01:39.180Z,58.00
2019-05-20T04:02:39.170Z,59.10
2019-05-20T04:03:39.168Z,58.40
2019-05-20T04:04:39.729Z,60.00
2019-05-20T04:05:39.169Z,58.20
2019-05-20T04:06:39.149Z,59.20
2019-05-20T04:07:39.154Z,58.20
2019-05-20T04:08:39.141Z,58.20
2019-05-20T04:09:39.132Z,59.20
2019-05-20T04:10:39.133Z,60.00
2019-05-20T04:11:39.134Z,59.70
2019-05-20T04:12:39.129Z,61.70
2019-05-20T04:13:39.134Z,60.00
2019-05-20T04:14:39.114Z,60.70
2019-05-20T04:15:39.112Z,59.70
2019-05-20T04:16:39.103Z,59.50
2019-05-20T04:17:39.092Z,60.00
2019-05-20T04:18:39.094Z,59.00
2019-05-20T04:19:39.084Z,59.20
2019-05-20T04:20:39.083Z,59.50
2019-05-20T04:21:39.108Z,59.10
2019-05-20T04:22:39.213Z,59.30
2019-05-20T04:23:39.098Z,57.50
2019-05-20T04:24:39.068Z,59.70
2019-05-20T04:25:39.060Z,62.00
2019-05-20T04:26:39.058Z,61.40
2019-05-20T04:27:39.059Z,58.60
2019-05-20T04:28:39.043Z,57.90
2019-05-20T04:29:39.040Z,59.00
2019-05-20T04:30:39.029Z,59.00
2019-05-20T04:31:39.034Z,59.20
2019-05-20T04:32:39.032Z,57.90
2019-05-20T04:33:39.018Z,57.00
2019-05-20T04:34:39.034Z,56.80
2019-05-20T04:35:39.015Z,56.70
2019-05-20T04:36:39.008Z,58.60
2019-05-20T04:37:38.996Z,57.10
2019-05-20T04:38:38.992Z,57.10
2019-05-20T04:39:38.987Z,57.80
2019-05-20T04:40:38.987Z,55.80
2019-05-20T04:41:38.992Z,57.00
2019-05-20T04:42:38.976Z,57.10
2019-05-20T04:43:38.974Z,55.30
2019-05-20T04:44:38.967Z,54.60
2019-05-20T04:45:38.966Z,55.90
2019-05-20T04:46:38.959Z,55.10
2019-05-20T04:47:38.949Z,55.10
2019-05-20T04:48:38.956Z,54.10
2019-05-20T04:49:38.946Z,55.40
2019-05-20T04:50:38.936Z,54.50
2019-05-20T04:51:38.932Z,53.60
2019-05-20T04:52:38.930Z,54.90
2019-05-20T04:53:38.929Z,52.00
2019-05-20T04:54:38.921Z,54.40
2019-05-20T04:55:38.916Z,51.90
2019-05-20T04:56:38.913Z,53.60
2019-05-20T04:57:38.914Z,52.40
2019-05-20T04:58:38.896Z,52.50
2019-05-20T04:59:38.899Z,51.40
2019-05-20T05:00:38.892Z,50.80
2019-05-20T05:01:38.887Z,51.70
2019-05-20T05:02:42.917Z,53.30
2019-05-20T05:03:38.877Z,51.30
2019-05-20T05:04:38.873Z,52.50
2019-05-20T05:05:38.867Z,52.10
2019-05-20T05:06:38.874Z,48.00
2019-05-20T05:07:38.859Z,51.30
2019-05-20T05:08:38.854Z,51.10
2019-05-20T05:09:38.845Z,49.90
2019-05-20T05:10:38.846Z,48.10
2019-05-20T05:11:38.843Z,48.70
2019-05-20T05:12:38.836Z,48.90
2019-05-20T05:13:38.831Z,48.70
2019-05-20T05:14:38.827Z,48.10
2019-05-20T05:15:38.816Z,47.30
2019-05-20T05:16:38.817Z,46.90
2019-05-20T05:17:38.813Z,46.60
2019-05-20T05:18:38.812Z,44.70
2019-05-20T05:19:38.803Z,45.20
2019-05-20T05:20:38.799Z,47.60
2019-05-20T05:21:38.791Z,44.60
2019-05-20T05:22:38.786Z,44.80
2019-05-20T05:23:38.782Z,46.40
2019-05-20T05:24:38.777Z,44.40
2019-05-20T05:25:38.798Z,45.80
2019-05-20T05:26:38.776Z,43.20
2019-05-20T05:27:38.765Z,45.30
2019-05-20T05:28:38.758Z,45.20
2019-05-20T05:29:38.833Z,44.20
2019-05-20T05:30:38.761Z,45.10
2019-05-20T05:31:38.755Z,43.30
2019-05-20T05:32:38.742Z,45.40
2019-05-20T05:33:38.736Z,44.20
2019-05-20T05:34:38.736Z,45.50
2019-05-20T05:35:52.263Z,44.10
2019-05-20T05:36:38.724Z,45.80
2019-05-20T05:37:38.721Z,45.80
2019-05-20T05:38:38.717Z,44.10
2019-05-20T05:39:38.714Z,44.40
2019-05-20T05:40:38.710Z,44.10
2019-05-20T05:41:38.705Z,44.70
2019-05-20T05:42:38.695Z,45.70
2019-05-20T05:43:38.710Z,44.30
2019-05-20T05:44:38.699Z,45.00
2019-05-20T05:45:39.280Z,43.40
2019-05-20T05:46:38.685Z,45.30
2019-05-20T05:47:38.673Z,44.70
2019-05-20T05:48:38.672Z,45.00
2019-05-20T05:49:38.670Z,43.50
2019-05-20T05:50:38.655Z,44.10
2019-05-20T05:51:38.660Z,44.60
2019-05-20T05:52:38.663Z,44.00
2019-05-20T05:53:38.647Z,42.40
2019-05-20T05:54:38.652Z,41.00
2019-05-20T05:55:38.637Z,44.00
2019-05-20T05:56:38.634Z,42.20
2019-05-20T05:57:38.633Z,42.90
2019-05-20T05:58:38.628Z,43.50
2019-05-20T05:59:38.622Z,44.00
2019-05-20T06:00:38.620Z,44.10
2019-05-20T06:01:38.616Z,43.00
2019-05-20T06:02:38.611Z,45.40
2019-05-20T06:03:38.617Z,43.50
2019-05-20T06:04:38.607Z,44.40
2019-05-20T06:05:38.597Z,43.70
2019-05-20T06:06:38.591Z,42.60
2019-05-20T06:07:38.600Z,43.50
2019-05-20T06:08:38.610Z,42.80
2019-05-20T06:09:38.589Z,43.70
2019-05-20T06:10:38.578Z,43.70
2019-05-20T06:11:38.574Z,44.00
2019-05-20T06:12:38.568Z,42.30
2019-05-20T06:13:38.563Z,44.40
2019-05-20T06:14:38.557Z,42.50
2019-05-20T06:15:38.559Z,42.70
2019-05-20T06:16:38.552Z,42.60
2019-05-20T06:17:38.544Z,42.60
2019-05-20T06:18:38.541Z,42.00
2019-05-20T06:19:38.538Z,41.90
2019-05-20T06:20:38.534Z,40.70
2019-05-20T06:21:38.534Z,43.40
2019-05-20T06:22:38.533Z,43.70
2019-05-20T06:23:38.524Z,43.50
2019-05-20T06:24:38.517Z,44.80
2019-05-20T06:25:38.515Z,43.60
2019-05-20T06:26:38.509Z,43.60
2019-05-20T06:27:38.505Z,44.00
2019-05-20T06:28:38.503Z,43.00
2019-05-20T06:29:38.499Z,42.90
2019-05-20T06:30:38.523Z,41.60
2019-05-20T06:31:38.492Z,40.60
2019-05-20T06:32:38.487Z,41.80
2019-05-20T06:33:38.485Z,39.70
2019-05-20T06:34:38.478Z,40.60
2019-05-20T06:35:38.482Z,39.40
2019-05-20T06:36:38.477Z,40.80
2019-05-20T06:37:38.462Z,38.50
2019-05-20T06:38:38.456Z,40.20
2019-05-20T06:39:38.456Z,40.60
2019-05-20T06:40:38.453Z,39.50
2019-05-20T06:41:38.456Z,40.90
2019-05-20T06:42:38.640Z,39.50
2019-05-20T06:43:38.739Z,38.50
2019-05-20T06:44:51.668Z,38.90
2019-05-20T06:45:38.430Z,38.30
2019-05-20T06:46:38.434Z,38.30
2019-05-20T06:47:38.422Z,40.10
2019-05-20T06:48:38.432Z,38.00
2019-05-20T06:49:38.417Z,39.40
2019-05-20T06:50:38.411Z,39.20
2019-05-20T06:51:38.406Z,40.20
2019-05-20T06:52:38.403Z,38.70
2019-05-20T06:53:38.399Z,39.60
2019-05-20T06:54:38.399Z,39.30
2019-05-20T06:55:38.393Z,37.80
2019-05-20T06:56:38.387Z,39.50
2019-05-20T06:57:38.381Z,38.70
2019-05-20T06:58:38.377Z,38.20
2019-05-20T06:59:38.371Z,39.40
2019-05-20T07:00:38.377Z,39.00
2019-05-20T07:01:38.368Z,38.90
2019-05-20T07:02:38.369Z,38.80
2019-05-20T07:03:38.354Z,38.10
2019-05-20T07:04:38.349Z,39.10
2019-05-20T07:05:38.389Z,37.00
2019-05-20T07:06:46.743Z,37.10
2019-05-20T07:07:38.344Z,36.90
2019-05-20T07:08:38.340Z,36.80
2019-05-20T07:09:38.341Z,37.10
2019-05-20T07:10:38.336Z,36.40
2019-05-20T07:11:38.339Z,36.50
2019-05-20T07:12:41.660Z,36.30
2019-05-20T07:13:38.322Z,34.60
2019-05-20T07:14:38.308Z,32.60
2019-05-20T07:15:38.313Z,33.30
2019-05-20T07:16:38.309Z,33.00
2019-05-20T07:17:38.291Z,31.00
2019-05-20T07:18:38.294Z,32.50
2019-05-20T07:19:38.301Z,30.30
2019-05-20T07:20:38.289Z,33.40
2019-05-20T07:21:38.286Z,30.80
2019-05-20T07:22:54.453Z,31.40
2019-05-20T07:23:38.281Z,30.50
2019-05-20T07:24:38.280Z,31.30
2019-05-20T07:25:38.292Z,31.90
2019-05-20T07:26:38.263Z,30.30
2019-05-20T07:27:38.261Z,30.10
2019-05-20T07:28:38.271Z,32.10
2019-05-20T07:29:38.260Z,31.30
2019-05-20T07:30:38.244Z,30.10
2019-05-20T07:31:38.247Z,29.40
2019-05-20T07:32:38.238Z,30.90
2019-05-20T07:33:38.247Z,29.10
2019-05-20T07:34:38.231Z,30.20
2019-05-20T07:35:38.219Z,30.10
2019-05-20T07:36:38.221Z,29.90
2019-05-20T07:37:38.237Z,29.80
2019-05-20T07:38:38.225Z,30.60
2019-05-20T07:39:38.219Z,31.20
2019-05-20T07:40:38.204Z,29.70
2019-05-20T07:41:41.336Z,30.10
2019-05-20T07:42:38.195Z,31.10
2019-05-20T07:43:38.207Z,31.40
2019-05-20T07:44:38.187Z,29.70
2019-05-20T07:45:38.183Z,31.20
2019-05-20T07:46:38.168Z,32.80
2019-05-20T07:47:38.176Z,33.60
2019-05-20T07:48:38.185Z,36.70
2019-05-20T07:49:38.174Z,34.60
2019-05-20T07:50:38.164Z,36.20
2019-05-20T07:51:38.224Z,33.90
2019-05-20T07:52:38.158Z,35.20
2019-05-20T07:53:38.175Z,36.90
2019-05-20T07:54:38.153Z,36.70
2019-05-20T07:55:38.144Z,37.70
2019-05-20T07:56:38.145Z,37.70
2019-05-20T07:57:38.123Z,36.70
2019-05-20T07:58:38.132Z,35.40
2019-05-20T07:59:38.133Z,35.30
2019-05-20T08:00:38.128Z,35.10
2019-05-20T08:01:38.118Z,36.30
2019-05-20T08:02:38.115Z,34.70
2019-05-20T08:03:38.818Z,35.30
2019-05-20T08:04:38.133Z,35.10
2019-05-20T08:05:38.118Z,34.50
2019-05-20T08:06:38.123Z,35.20
2019-05-20T08:07:51.492Z,33.50
2019-05-20T08:08:38.085Z,33.20
2019-05-20T08:09:45.362Z,33.90
2019-05-20T08:10:38.073Z,33.20
2019-05-20T08:11:38.114Z,31.40
2019-05-20T08:12:38.062Z,31.40
2019-05-20T08:13:38.085Z,33.20
2019-05-20T08:14:38.074Z,32.00
2019-05-20T08:15:38.071Z,32.00
2019-05-20T08:16:38.075Z,33.30
2019-05-20T08:17:38.061Z,32.80
2019-05-20T08:18:38.045Z,32.50
2019-05-20T08:19:38.053Z,33.60
2019-05-20T08:20:38.037Z,33.80
2019-05-20T08:21:38.056Z,33.60
2019-05-20T08:22:38.027Z,33.50
2019-05-20T08:23:38.043Z,35.60
2019-05-20T08:24:38.029Z,35.40
2019-05-20T08:25:38.020Z,37.30
2019-05-20T08:26:38.052Z,36.50
2019-05-20T08:27:38.013Z,36.20
2019-05-20T08:28:38.012Z,37.80
2019-05-20T08:29:38.003Z,36.70
2019-05-20T08:30:38.010Z,34.50
2019-05-20T08:31:38.003Z,35.70
2019-05-20T08:32:38.011Z,35.10
2019-05-20T08:33:37.987Z,36.50
2019-05-20T08:34:39.125Z,37.30
2019-05-20T08:35:38.139Z,38.50
2019-05-20T08:36:37.978Z,37.40
2019-05-20T08:37:45.501Z,37.00
2019-05-20T08:38:37.964Z,35.40
2019-05-20T08:39:37.967Z,38.30
2019-05-20T08:40:37.957Z,37.60
2019-05-20T08:41:37.962Z,37.20
2019-05-20T08:42:37.947Z,37.30
2019-05-20T08:43:37.943Z,38.60
2019-05-20T08:44:37.948Z,38.00
2019-05-20T08:45:37.939Z,38.80
2019-05-20T08:46:37.932Z,40.10
2019-05-20T08:47:37.937Z,41.40
2019-05-20T08:48:37.931Z,40.30
2019-05-20T08:49:38.124Z,39.70
2019-05-20T08:50:37.916Z,40.30
2019-05-20T08:51:37.915Z,40.40
2019-05-20T08:52:37.918Z,41.20
2019-05-20T08:53:37.944Z,41.10
2019-05-20T08:54:40.221Z,41.20
2019-05-20T08:55:37.914Z,42.90
2019-05-20T08:56:37.895Z,42.40
2019-05-20T08:57:37.904Z,41.80
2019-05-20T08:58:37.883Z,42.30
2019-05-20T08:59:37.889Z,41.50
2019-05-20T09:00:37.874Z,41.10
2019-05-20T09:01:37.883Z,42.60
2019-05-20T09:02:37.896Z,41.80
2019-05-20T09:03:37.865Z,40.80
2019-05-20T09:04:37.897Z,39.90
2019-05-20T09:05:37.922Z,39.20
2019-05-20T09:06:37.852Z,39.10
2019-05-20T09:07:37.903Z,37.70
2019-05-20T09:08:37.848Z,38.60
2019-05-20T09:09:37.907Z,39.30
2019-05-20T09:10:39.624Z,38.70
2019-05-20T09:11:37.859Z,38.30
2019-05-20T09:12:37.835Z,36.80
2019-05-20T09:13:37.849Z,38.30
2019-05-20T09:14:40.523Z,37.70
2019-05-20T09:15:37.824Z,39.20
2019-05-20T09:16:37.828Z,39.20
2019-05-20T09:17:38.973Z,38.80
2019-05-20T09:18:37.813Z,37.20
2019-05-20T09:19:37.805Z,37.50
2019-05-20T09:20:37.793Z,37.30
2019-05-20T09:21:37.800Z,39.30
2019-05-20T09:22:37.789Z,38.90
2019-05-20T09:23:37.793Z,39.10
2019-05-20T09:24:37.838Z,38.00
2019-05-20T09:25:37.782Z,39.30
2019-05-20T09:26:37.780Z,37.60
2019-05-20T09:27:37.790Z,39.50
2019-05-20T09:28:37.764Z,39.30
2019-05-20T09:29:38.213Z,38.20
2019-05-20T09:30:37.753Z,37.90
2019-05-20T09:31:37.781Z,36.20
2019-05-20T09:32:37.761Z,37.40
2019-05-20T09:33:37.749Z,38.70
2019-05-20T09:34:37.787Z,39.30
2019-05-20T09:35:37.733Z,36.00
2019-05-20T09:36:37.771Z,37.00
2019-05-20T09:37:37.737Z,36.60
2019-05-20T09:38:37.809Z,37.30
2019-05-20T09:39:37.719Z,35.00
2019-05-20T09:40:37.734Z,35.40
2019-05-20T09:41:37.741Z,36.60
2019-05-20T09:42:40.859Z,36.00
2019-05-20T09:43:37.765Z,35.00
2019-05-20T09:44:37.766Z,36.50
2019-05-20T09:45:37.737Z,35.50
2019-05-20T09:46:37.698Z,35.30
2019-05-20T09:47:37.694Z,36.20
2019-05-20T09:48:37.732Z,35.30
2019-05-20T09:49:37.729Z,36.10
2019-05-20T09:50:37.684Z,37.40
2019-05-20T09:51:37.721Z,37.20
2019-05-20T09:52:37.679Z,37.50
2019-05-20T09:53:37.670Z,37.50
2019-05-20T09:54:37.710Z,36.50
2019-05-20T09:55:37.849Z,38.00
2019-05-20T09:56:37.662Z,36.40
2019-05-20T09:57:37.660Z,36.80
2019-05-20T09:58:37.688Z,36.70
2019-05-20T09:59:43.159Z,35.00
2019-05-20T10:00:37.636Z,35.50
2019-05-20T10:01:40.292Z,35.50
2019-05-20T10:02:38.436Z,35.50
2019-05-20T10:03:37.631Z,33.90
2019-05-20T10:04:37.636Z,34.60
2019-05-20T10:05:38.051Z,34.20
2019-05-20T10:06:37.619Z,34.10
2019-05-20T10:07:37.618Z,32.70
2019-05-20T10:08:43.515Z,33.20
2019-05-20T10:09:37.614Z,35.10
2019-05-20T10:10:37.602Z,34.70
2019-05-20T10:11:37.611Z,32.20
2019-05-20T10:12:45.857Z,34.90
2019-05-20T10:13:37.612Z,33.80
2019-05-20T10:14:37.599Z,35.80
2019-05-20T10:15:37.622Z,33.80
2019-05-20T10:16:37.595Z,34.00
2019-05-20T10:17:37.586Z,33.50
2019-05-20T10:18:39.265Z,33.90
2019-05-20T10:19:37.567Z,33.80
2019-05-20T10:20:37.573Z,34.40
2019-05-20T10:21:37.607Z,32.80
2019-05-20T10:22:37.573Z,33.10
2019-05-20T10:23:37.559Z,32.90
2019-05-20T10:24:37.558Z,32.30
2019-05-20T10:25:37.571Z,33.30
2019-05-20T10:26:37.551Z,33.70
2019-05-20T10:27:37.549Z,33.10
2019-05-20T10:28:41.975Z,33.10
2019-05-20T10:29:37.543Z,33.60
2019-05-20T10:30:37.541Z,33.20
2019-05-20T10:31:37.548Z,32.20
2019-05-20T10:32:37.528Z,32.00
2019-05-20T10:33:37.519Z,32.20
2019-05-20T10:34:37.890Z,32.90
2019-05-20T10:35:37.529Z,32.90
2019-05-20T10:36:37.534Z,32.20
2019-05-20T10:37:37.508Z,33.30
2019-05-20T10:38:54.906Z,33.30
2019-05-20T10:39:37.495Z,32.30
2019-05-20T10:40:37.509Z,32.50
2019-05-20T10:41:37.506Z,32.30
2019-05-20T10:42:37.504Z,32.90
2019-05-20T10:43:37.486Z,32.50
2019-05-20T10:44:37.490Z,33.00
2019-05-20T10:45:37.492Z,32.60
2019-05-20T10:46:37.478Z,32.60
2019-05-20T10:47:37.474Z,32.60
2019-05-20T10:48:37.471Z,32.70
2019-05-20T10:49:37.467Z,33.30
2019-05-20T10:50:37.456Z,33.70
2019-05-20T10:51:37.460Z,33.40
2019-05-20T10:52:37.454Z,34.00
2019-05-20T10:53:37.449Z,32.50
2019-05-20T10:54:37.456Z,30.70
2019-05-20T10:55:37.442Z,33.10
2019-05-20T10:56:37.479Z,32.90
2019-05-20T10:57:37.498Z,34.30
2019-05-20T10:58:37.434Z,33.60
2019-05-20T10:59:37.429Z,33.50
2019-05-20T11:00:37.453Z,34.40
2019-05-20T11:01:37.423Z,35.10
2019-05-20T11:02:37.417Z,34.70
2019-05-20T11:03:37.416Z,34.90
2019-05-20T11:04:37.413Z,35.50
2019-05-20T11:05:37.479Z,35.10
2019-05-20T11:06:37.409Z,35.40
2019-05-20T11:07:37.406Z,36.20
2019-05-20T11:08:37.401Z,36.10
2019-05-20T11:09:37.403Z,35.10
2019-05-20T11:10:37.391Z,35.90
2019-05-20T11:11:39.414Z,35.80
2019-05-20T11:12:37.381Z,36.90
2019-05-20T11:13:37.384Z,37.10
2019-05-20T11:14:37.382Z,35.10
2019-05-20T11:15:37.375Z,37.80
2019-05-20T11:16:37.374Z,37.00
2019-05-20T11:17:37.365Z,38.60
2019-05-20T11:18:37.359Z,37.60
2019-05-20T11:19:37.363Z,37.20
2019-05-20T11:20:37.359Z,36.00
2019-05-20T11:21:37.359Z,36.40
2019-05-20T11:22:37.350Z,37.60
2019-05-20T11:23:37.346Z,37.60
2019-05-20T11:24:37.341Z,35.40
2019-05-20T11:25:37.339Z,37.40
2019-05-20T11:26:37.342Z,36.60
2019-05-20T11:27:37.333Z,36.00
2019-05-20T11:28:37.330Z,36.50
2019-05-20T11:29:37.323Z,37.40
2019-05-20T11:30:37.320Z,35.80
2019-05-20T11:31:37.317Z,37.60
2019-05-20T11:32:37.359Z,36.80
2019-05-20T11:33:37.322Z,35.20
2019-05-20T11:34:37.320Z,36.30
2019-05-20T11:35:37.305Z,35.90
2019-05-20T11:36:37.309Z,34.20
2019-05-20T11:37:37.301Z,36.20
2019-05-20T11:38:37.297Z,34.90
2019-05-20T11:39:37.296Z,34.90
2019-05-20T11:40:37.298Z,36.80
2019-05-20T11:41:52.819Z,35.60
2019-05-20T11:42:37.287Z,36.60
2019-05-20T11:43:37.278Z,36.70
2019-05-20T11:44:37.271Z,37.00
2019-05-20T11:45:37.270Z,35.50
2019-05-20T11:46:37.272Z,34.20
2019-05-20T11:47:37.257Z,34.20
2019-05-20T11:48:37.280Z,35.10
2019-05-20T11:49:37.255Z,35.70
2019-05-20T11:50:37.260Z,34.40
2019-05-20T11:51:37.253Z,34.50
2019-05-20T11:52:37.249Z,34.10
2019-05-20T11:53:37.241Z,35.90
2019-05-20T11:54:37.234Z,35.40
2019-05-20T11:55:37.238Z,34.10
2019-05-20T11:56:37.335Z,34.70
2019-05-20T11:57:37.255Z,34.80
2019-05-20T11:58:37.229Z,35.50
2019-05-20T11:59:37.225Z,37.30
2019-05-20T12:00:37.229Z,34.70
2019-05-20T12:01:37.220Z,36.80
2019-05-20T12:02:37.220Z,36.90
2019-05-20T12:03:37.206Z,36.30
2019-05-20T12:04:37.201Z,36.50
2019-05-20T12:05:37.217Z,35.60
2019-05-20T12:06:37.209Z,36.10
2019-05-20T12:07:37.204Z,36.70
2019-05-20T12:08:37.186Z,35.70
2019-05-20T12:09:49.031Z,36.40
2019-05-20T12:10:37.182Z,36.60
2019-05-20T12:11:37.180Z,37.60
2019-05-20T12:12:37.198Z,36.50
2019-05-20T12:13:37.175Z,36.00
2019-05-20T12:14:37.173Z,37.70
2019-05-20T12:15:37.173Z,35.90
2019-05-20T12:16:37.159Z,36.70
2019-05-20T12:17:37.178Z,35.90
2019-05-20T12:18:37.165Z,36.20
2019-05-20T12:19:37.162Z,37.20
2019-05-20T12:20:37.171Z,38.00
2019-05-20T12:21:37.146Z,34.70
2019-05-20T12:22:37.138Z,34.30
2019-05-20T12:23:37.142Z,37.40
2019-05-20T12:24:37.204Z,37.10
2019-05-20T12:25:37.145Z,37.60
2019-05-20T12:26:37.134Z,36.30
2019-05-20T12:27:37.145Z,36.10
2019-05-20T12:28:37.132Z,38.80
2019-05-20T12:29:37.149Z,36.70
2019-05-20T12:30:37.152Z,36.80
2019-05-20T12:31:37.121Z,35.60
2019-05-20T12:32:37.120Z,36.90
2019-05-20T12:33:37.113Z,37.10
2019-05-20T12:34:37.114Z,38.00
2019-05-20T12:35:37.104Z,36.20
2019-05-20T12:36:37.108Z,37.90
2019-05-20T12:37:37.113Z,36.00
2019-05-20T12:38:37.095Z,37.30
2019-05-20T12:39:37.103Z,36.70
2019-05-20T12:40:37.086Z,37.30
2019-05-20T12:41:37.112Z,37.30
2019-05-20T12:42:37.081Z,37.00
2019-05-20T12:43:37.138Z,36.50
2019-05-20T12:44:37.089Z,38.70
2019-05-20T12:45:37.072Z,37.80
2019-05-20T12:46:37.065Z,37.50
2019-05-20T12:47:37.065Z,38.30
2019-05-20T12:48:37.060Z,37.50
2019-05-20T12:49:37.209Z,37.30
2019-05-20T12:50:37.053Z,36.80
2019-05-20T12:51:37.050Z,37.30
2019-05-20T12:52:37.049Z,38.00